createdAt,value
2023-03-08T00:01:05.066Z,11.58
2023-03-08T00:06:09.327Z,11.58
2023-03-08T00:11:13.078Z,11.76
2023-03-08T00:16:15.402Z,11.94
2023-03-08T00:21:20.297Z,11.98
2023-03-08T00:26:22.662Z,11.82
2023-03-08T00:31:24.829Z,11.92
2023-03-08T00:36:27.011Z,12.02
2023-03-08T00:41:29.226Z,12.01
2023-03-08T00:46:32.235Z,12.06
2023-03-08T00:51:34.423Z,11.72
2023-03-08T00:56:36.644Z,11.68
2023-03-08T01:01:38.818Z,11.80
2023-03-08T01:06:41.369Z,11.94
2023-03-08T01:11:44.568Z,11.94
2023-03-08T01:16:46.766Z,11.98
2023-03-08T01:21:48.928Z,11.99
2023-03-08T01:26:51.157Z,11.66
2023-03-08T01:31:53.679Z,11.63
2023-03-08T01:36:55.844Z,11.79
2023-03-08T01:41:58.040Z,11.77
2023-03-08T01:47:01.047Z,11.70
2023-03-08T01:52:07.288Z,11.63
2023-03-08T01:57:17.240Z,11.53
2023-03-08T02:02:24.989Z,11.57
2023-03-08T02:07:29.000Z,11.37
2023-03-08T02:12:32.003Z,11.22
2023-03-08T02:23:14.936Z,11.38
2023-03-08T02:28:18.180Z,11.40
2023-03-08T02:33:20.434Z,11.33
2023-03-08T02:38:22.795Z,11.30
2023-03-08T02:43:24.996Z,11.31
2023-03-08T02:48:27.150Z,11.35
2023-03-08T02:53:29.509Z,11.37
2023-03-08T02:58:31.586Z,11.10
2023-03-08T03:03:33.807Z,11.02
2023-03-08T03:08:35.899Z,11.01
2023-03-08T03:13:38.127Z,10.80
2023-03-08T03:18:42.218Z,10.71
2023-03-08T03:23:44.508Z,10.62
2023-03-08T03:28:46.814Z,10.84
2023-03-08T03:33:50.132Z,10.93
2023-03-08T03:38:54.754Z,10.74
2023-03-08T03:43:58.247Z,10.82
2023-03-08T03:49:00.374Z,10.73
2023-03-08T03:54:02.769Z,10.43
2023-03-08T03:59:04.954Z,10.38
2023-03-08T04:04:07.226Z,10.62
2023-03-08T04:09:15.815Z,10.62
2023-03-08T04:14:18.033Z,10.38
2023-03-08T04:19:20.141Z,10.16
2023-03-08T04:24:22.309Z,9.95
2023-03-08T04:29:24.548Z,9.86
2023-03-08T04:34:27.582Z,9.82
2023-03-08T04:39:29.969Z,10.06
2023-03-08T04:44:32.119Z,10.28
2023-03-08T04:49:34.345Z,10.16
2023-03-08T04:54:36.441Z,10.11
2023-03-08T04:59:38.662Z,10.07
2023-03-08T05:04:40.882Z,9.85
2023-03-08T05:09:43.132Z,10.12
2023-03-08T05:14:45.421Z,10.38
2023-03-08T05:19:48.057Z,10.15
2023-03-08T05:24:51.494Z,10.19
2023-03-08T05:29:53.851Z,10.39
2023-03-08T05:34:55.933Z,10.62
2023-03-08T05:39:58.091Z,10.71
2023-03-08T05:45:00.373Z,11.00
2023-03-08T05:50:05.218Z,10.84
2023-03-08T05:55:07.703Z,10.88
2023-03-08T06:00:10.483Z,10.85
2023-03-08T06:05:12.580Z,10.00
2023-03-08T06:10:14.856Z,10.57
2023-03-08T06:15:17.421Z,11.07
2023-03-08T06:20:19.660Z,11.44
2023-03-08T06:25:21.781Z,11.56
2023-03-08T06:30:24.069Z,11.79
2023-03-08T06:35:26.371Z,12.24
2023-03-08T06:40:28.516Z,12.40
2023-03-08T06:45:30.707Z,12.52
2023-03-08T06:50:33.696Z,12.52
2023-03-08T06:55:37.220Z,12.58
2023-03-08T07:00:39.783Z,12.73
2023-03-08T07:05:43.577Z,12.63
2023-03-08T07:10:45.840Z,12.72
2023-03-08T07:15:48.194Z,13.07
2023-03-08T07:20:57.012Z,13.18
2023-03-08T07:25:59.220Z,13.58
2023-03-08T07:31:02.629Z,13.90
2023-03-08T07:36:05.060Z,14.09
2023-03-08T07:41:07.452Z,14.12
2023-03-08T07:46:09.878Z,13.77
2023-03-08T07:51:12.674Z,13.51
2023-03-08T07:56:15.653Z,13.56
2023-03-08T08:01:17.863Z,13.50
2023-03-08T08:06:22.140Z,13.98
2023-03-08T08:11:24.332Z,14.09
2023-03-08T08:16:27.762Z,14.17
2023-03-08T08:21:29.984Z,14.51
2023-03-08T08:26:32.212Z,14.97
2023-03-08T08:31:36.297Z,15.23
2023-03-08T08:36:38.693Z,15.47
2023-03-08T08:41:40.969Z,15.44
2023-03-08T08:46:43.134Z,15.09
2023-03-08T08:51:46.120Z,15.75
2023-03-08T08:56:48.645Z,15.88
2023-03-08T09:01:50.934Z,15.82
2023-03-08T09:06:53.966Z,16.06
2023-03-08T09:11:56.242Z,16.27
2023-03-08T09:16:58.670Z,16.07
2023-03-08T09:22:01.936Z,15.94
2023-03-08T09:27:07.753Z,15.84
2023-03-08T09:32:10.945Z,15.98
2023-03-08T09:37:15.123Z,16.29
2023-03-08T09:42:23.816Z,16.54
2023-03-08T09:47:30.408Z,16.63
2023-03-08T09:52:39.745Z,16.60
2023-03-08T09:57:50.801Z,16.95
2023-03-08T10:03:23.804Z,17.01
2023-03-08T10:08:52.856Z,17.08
2023-03-08T10:13:58.858Z,16.99
2023-03-08T10:19:19.409Z,17.34
2023-03-08T10:24:44.252Z,17.24
2023-03-08T10:29:58.606Z,17.56
2023-03-08T10:35:07.035Z,17.73
2023-03-08T10:40:21.552Z,18.01
2023-03-08T10:45:25.969Z,18.07
2023-03-08T10:50:34.568Z,18.08
2023-03-08T10:55:46.053Z,17.96
2023-03-08T11:00:54.784Z,17.94
2023-03-08T11:06:01.315Z,18.15
2023-03-08T11:11:10.324Z,18.43
2023-03-08T11:16:45.792Z,18.71
2023-03-08T11:21:56.929Z,18.65
2023-03-08T11:27:13.994Z,18.82
2023-03-08T11:32:39.611Z,19.18
2023-03-08T11:37:54.256Z,19.32
2023-03-08T11:43:13.640Z,19.00
2023-03-08T11:48:22.412Z,18.95
2023-03-08T11:53:39.410Z,18.97
2023-03-08T11:58:52.799Z,19.00
2023-03-08T12:04:01.947Z,18.91
2023-03-08T12:09:26.662Z,18.77
2023-03-08T12:14:35.229Z,19.11
2023-03-08T12:19:51.134Z,19.13
2023-03-08T12:25:09.797Z,19.00
2023-03-08T12:30:12.012Z,18.96
2023-03-08T12:35:23.183Z,19.43
2023-03-08T12:40:31.409Z,19.97
2023-03-08T12:45:33.944Z,19.77
2023-03-08T12:50:43.966Z,19.76
2023-03-08T12:55:46.208Z,20.18
2023-03-08T13:01:02.402Z,20.41
2023-03-08T13:06:24.233Z,20.40
2023-03-08T13:11:38.583Z,20.81
2023-03-08T13:16:41.071Z,20.68
2023-03-08T13:22:04.614Z,20.45
2023-03-08T13:27:09.666Z,20.77
2023-03-08T13:32:17.604Z,20.70
2023-03-08T13:37:28.027Z,20.38
2023-03-08T13:42:31.061Z,20.22
2023-03-08T13:47:37.796Z,20.14
2023-03-08T13:52:40.883Z,20.12
2023-03-08T13:57:43.257Z,20.50
2023-03-08T14:02:47.280Z,20.52
2023-03-08T14:08:04.436Z,20.52
2023-03-08T14:13:16.359Z,20.68
2023-03-08T14:18:29.180Z,20.64
2023-03-08T14:23:37.493Z,20.33
2023-03-08T14:28:42.090Z,20.59
2023-03-08T14:33:44.509Z,20.15
2023-03-08T14:38:49.555Z,20.26
2023-03-08T14:43:52.033Z,20.91
2023-03-08T14:49:05.245Z,20.86
2023-03-08T14:54:22.671Z,21.03
2023-03-08T14:59:28.072Z,21.07
2023-03-08T15:04:30.489Z,21.25
2023-03-08T15:09:33.921Z,20.85
2023-03-08T15:14:36.857Z,20.45
2023-03-08T15:19:38.973Z,20.38
2023-03-08T15:24:41.425Z,21.29
2023-03-08T15:29:43.674Z,22.61
2023-03-08T15:34:45.945Z,22.23
2023-03-08T15:39:48.150Z,23.04
2023-03-08T15:44:50.297Z,23.38
2023-03-08T15:49:52.738Z,24.14
2023-03-08T15:54:55.000Z,24.67
2023-03-08T15:59:58.063Z,22.17
2023-03-08T16:05:00.291Z,20.69
2023-03-08T16:10:03.503Z,19.41
2023-03-08T16:15:07.338Z,18.28
2023-03-08T16:20:10.378Z,18.08
2023-03-08T16:25:13.391Z,17.44
2023-03-08T16:30:15.816Z,17.32
2023-03-08T16:35:18.088Z,16.64
2023-03-08T16:40:20.499Z,16.70
2023-03-08T16:45:22.674Z,16.47
2023-03-08T16:50:27.711Z,16.70
2023-03-08T16:55:29.874Z,16.86
2023-03-08T17:00:32.122Z,16.68
2023-03-08T17:05:38.781Z,16.31
2023-03-08T17:10:43.631Z,16.30
2023-03-08T17:15:49.815Z,16.09
2023-03-08T17:20:53.362Z,16.04
2023-03-08T17:25:55.567Z,15.64
2023-03-08T17:30:58.995Z,15.73
2023-03-08T17:36:02.519Z,15.44
2023-03-08T17:41:09.135Z,15.28
2023-03-08T17:46:20.781Z,15.52
2023-03-08T17:51:30.266Z,15.39
2023-03-08T17:56:33.035Z,15.19
2023-03-08T18:01:36.038Z,15.00
2023-03-08T18:06:42.318Z,15.05
2023-03-08T18:11:44.553Z,14.68
2023-03-08T18:16:47.753Z,14.43
2023-03-08T18:21:54.524Z,14.83
2023-03-08T18:27:00.064Z,14.58
2023-03-08T18:32:04.251Z,14.83
2023-03-08T18:37:06.379Z,14.83
2023-03-08T18:42:08.786Z,15.12
2023-03-08T18:47:13.376Z,14.86
2023-03-08T18:52:15.584Z,14.97
2023-03-08T18:57:17.886Z,14.89
2023-03-08T19:02:21.612Z,14.34
2023-03-08T19:07:24.119Z,14.06
2023-03-08T19:12:28.767Z,14.32
2023-03-08T19:17:31.858Z,14.64
2023-03-08T19:22:34.039Z,14.51
2023-03-08T19:27:36.289Z,13.41
2023-03-08T19:32:42.242Z,13.59
2023-03-08T19:37:44.861Z,13.80
2023-03-08T19:42:47.017Z,14.15
2023-03-08T19:47:49.150Z,14.48
2023-03-08T19:52:53.759Z,14.68
2023-03-08T19:57:55.919Z,14.91
2023-03-08T20:03:01.580Z,14.66
2023-03-08T20:08:04.037Z,15.04
2023-03-08T20:13:06.391Z,15.23
2023-03-08T20:18:08.639Z,15.39
2023-03-08T20:23:10.993Z,15.56
2023-03-08T20:28:13.192Z,15.07
2023-03-08T20:33:16.722Z,15.11
2023-03-08T20:38:19.250Z,14.34
2023-03-08T20:43:21.372Z,14.29
2023-03-08T20:48:24.466Z,14.05
2023-03-08T20:53:27.600Z,14.57
2023-03-08T21:03:56.454Z,14.97
2023-03-08T21:09:00.138Z,15.00
2023-03-08T21:14:03.312Z,14.95
2023-03-08T21:19:07.043Z,14.78
2023-03-08T21:24:14.078Z,14.25
2023-03-08T21:29:20.098Z,14.74
2023-03-08T21:34:22.440Z,15.04
2023-03-08T21:39:27.719Z,14.73
2023-03-08T21:44:31.988Z,14.82
2023-03-08T21:49:38.069Z,14.66
2023-03-08T21:54:42.754Z,14.55
2023-03-08T21:59:45.862Z,14.55
2023-03-08T22:04:48.191Z,14.70
2023-03-08T22:09:57.854Z,14.69
2023-03-08T22:15:00.163Z,14.55
2023-03-08T22:20:05.515Z,14.65
2023-03-08T22:25:09.772Z,14.66
2023-03-08T22:30:13.035Z,14.52
2023-03-08T22:35:25.787Z,14.51
2023-03-08T22:40:28.252Z,14.45
2023-03-08T22:45:31.379Z,14.26
2023-03-08T22:50:33.638Z,14.28
2023-03-08T22:55:35.886Z,14.30
2023-03-08T23:00:38.139Z,14.03
2023-03-08T23:05:40.281Z,13.98
2023-03-08T23:10:42.529Z,13.58
2023-03-08T23:15:44.646Z,12.89
2023-03-08T23:20:47.519Z,12.92
2023-03-08T23:25:50.504Z,12.36
2023-03-08T23:30:53.518Z,12.31
2023-03-08T23:35:55.829Z,12.72
2023-03-08T23:40:58.525Z,13.12
2023-03-08T23:46:02.738Z,13.42
2023-03-08T23:51:07.280Z,13.35
2023-03-08T23:56:30.461Z,13.46
